sensor_id;sensor_type;location;lat;lon;timestamp;P1;durP1;ratioP1;P2;durP2;ratioP2
2544;SDS011;36212;48.838;9.142;2023-10-31T00:00:59;10.60;;;10.30;;
2544;SDS011;36212;48.838;9.142;2023-10-31T00:03:32;11.45;;;11.15;;
2544;SDS011;36212;48.838;9.142;2023-10-31T00:06:04;11.20;;;10.90;;
2544;SDS011;36212;48.838;9.142;2023-10-31T00:08:37;10.85;;;10.52;;
2544;SDS011;36212;48.838;9.142;2023-10-31T00:11:09;11.75;;;11.45;;
2544;SDS011;36212;48.838;9.142;2023-10-31T00:13:42;10.75;;;10.45;;
2544;SDS011;36212;48.838;9.142;2023-10-31T00:16:15;11.60;;;11.30;;
2544;SDS011;36212;48.838;9.142;2023-10-31T00:18:48;12.23;;;11.82;;
2544;SDS011;36212;48.838;9.142;2023-10-31T00:21:20;12.13;;;11.63;;
2544;SDS011;36212;48.838;9.142;2023-10-31T00:23:52;11.75;;;11.45;;
2544;SDS011;36212;48.838;9.142;2023-10-31T00:26:25;11.80;;;11.50;;
2544;SDS011;36212;48.838;9.142;2023-10-31T00:28:57;11.20;;;10.90;;
2544;SDS011;36212;48.838;9.142;2023-10-31T00:31:29;11.93;;;11.63;;
2544;SDS011;36212;48.838;9.142;2023-10-31T00:34:05;12.95;;;12.57;;
2544;SDS011;36212;48.838;9.142;2023-10-31T00:36:38;13.80;;;13.40;;
2544;SDS011;36212;48.838;9.142;2023-10-31T00:39:10;13.95;;;13.45;;
2544;SDS011;36212;48.838;9.142;2023-10-31T00:41:46;13.38;;;12.98;;
2544;SDS011;36212;48.838;9.142;2023-10-31T00:44:18;13.93;;;13.52;;
2544;SDS011;36212;48.838;9.142;2023-10-31T00:46:51;13.10;;;12.60;;
2544;SDS011;36212;48.838;9.142;2023-10-31T00:49:23;13.93;;;13.52;;
2544;SDS011;36212;48.838;9.142;2023-10-31T00:51:56;13.50;;;13.10;;
2544;SDS011;36212;48.838;9.142;2023-10-31T00:54:29;11.82;;;11.43;;
2544;SDS011;36212;48.838;9.142;2023-10-31T00:57:01;11.45;;;11.15;;
2544;SDS011;36212;48.838;9.142;2023-10-31T00:59:33;12.70;;;12.30;;
2544;SDS011;36212;48.838;9.142;2023-10-31T01:02:06;12.80;;;12.40;;
2544;SDS011;36212;48.838;9.142;2023-10-31T01:04:38;11.30;;;11.00;;
2544;SDS011;36212;48.838;9.142;2023-10-31T01:07:11;11.80;;;11.40;;
2544;SDS011;36212;48.838;9.142;2023-10-31T01:09:47;9.68;;;9.20;;
2544;SDS011;36212;48.838;9.142;2023-10-31T01:12:19;7.85;;;7.65;;
2544;SDS011;36212;48.838;9.142;2023-10-31T01:14:52;8.65;;;8.15;;
2544;SDS011;36212;48.838;9.142;2023-10-31T01:17:25;7.25;;;7.00;;
2544;SDS011;36212;48.838;9.142;2023-10-31T01:19:57;6.70;;;6.50;;
2544;SDS011;36212;48.838;9.142;2023-10-31T01:22:29;5.80;;;5.60;;
2544;SDS011;36212;48.838;9.142;2023-10-31T01:25:02;5.97;;;5.68;;
2544;SDS011;36212;48.838;9.142;2023-10-31T01:27:35;5.20;;;5.00;;
2544;SDS011;36212;48.838;9.142;2023-10-31T01:30:08;5.05;;;4.65;;
2544;SDS011;36212;48.838;9.142;2023-10-31T01:32:42;4.75;;;4.65;;
2544;SDS011;36212;48.838;9.142;2023-10-31T01:35:15;4.75;;;4.55;;
2544;SDS011;36212;48.838;9.142;2023-10-31T01:37:47;4.13;;;4.03;;
2544;SDS011;36212;48.838;9.142;2023-10-31T01:40:19;5.20;;;5.00;;
2544;SDS011;36212;48.838;9.142;2023-10-31T01:42:52;3.72;;;3.53;;
2544;SDS011;36212;48.838;9.142;2023-10-31T01:45:25;4.97;;;4.57;;
2544;SDS011;36212;48.838;9.142;2023-10-31T01:47:58;4.78;;;4.68;;
2544;SDS011;36212;48.838;9.142;2023-10-31T01:50:30;5.20;;;5.00;;
2544;SDS011;36212;48.838;9.142;2023-10-31T01:53:03;5.28;;;5.07;;
2544;SDS011;36212;48.838;9.142;2023-10-31T01:55:35;5.43;;;5.32;;
2544;SDS011;36212;48.838;9.142;2023-10-31T01:58:08;6.20;;;6.00;;
2544;SDS011;36212;48.838;9.142;2023-10-31T02:00:41;5.68;;;5.38;;
2544;SDS011;36212;48.838;9.142;2023-10-31T02:03:14;5.72;;;5.45;;
2544;SDS011;36212;48.838;9.142;2023-10-31T02:05:47;5.53;;;5.32;;
2544;SDS011;36212;48.838;9.142;2023-10-31T02:08:21;4.78;;;4.47;;
2544;SDS011;36212;48.838;9.142;2023-10-31T02:10:55;4.70;;;4.53;;
2544;SDS011;36212;48.838;9.142;2023-10-31T02:13:28;5.10;;;4.72;;
2544;SDS011;36212;48.838;9.142;2023-10-31T02:16:01;5.25;;;5.05;;
2544;SDS011;36212;48.838;9.142;2023-10-31T02:18:34;5.15;;;4.95;;
2544;SDS011;36212;48.838;9.142;2023-10-31T02:21:08;5.57;;;5.07;;
2544;SDS011;36212;48.838;9.142;2023-10-31T02:23:40;5.20;;;5.00;;
2544;SDS011;36212;48.838;9.142;2023-10-31T02:26:12;4.72;;;4.53;;
2544;SDS011;36212;48.838;9.142;2023-10-31T02:28:45;5.25;;;4.88;;
2544;SDS011;36212;48.838;9.142;2023-10-31T02:31:17;4.60;;;4.40;;
2544;SDS011;36212;48.838;9.142;2023-10-31T02:33:50;4.75;;;4.32;;
2544;SDS011;36212;48.838;9.142;2023-10-31T02:36:22;4.55;;;4.45;;
2544;SDS011;36212;48.838;9.142;2023-10-31T02:38:55;5.18;;;4.97;;
2544;SDS011;36212;48.838;9.142;2023-10-31T02:41:27;5.22;;;4.82;;
2544;SDS011;36212;48.838;9.142;2023-10-31T02:43:59;4.25;;;4.05;;
2544;SDS011;36212;48.838;9.142;2023-10-31T02:46:32;5.10;;;4.90;;
2544;SDS011;36212;48.838;9.142;2023-10-31T02:49:08;4.75;;;4.65;;
2544;SDS011;36212;48.838;9.142;2023-10-31T02:51:41;5.35;;;5.15;;
2544;SDS011;36212;48.838;9.142;2023-10-31T02:54:14;4.72;;;4.55;;
2544;SDS011;36212;48.838;9.142;2023-10-31T02:56:46;4.15;;;4.05;;
2544;SDS011;36212;48.838;9.142;2023-10-31T02:59:19;4.60;;;4.50;;
2544;SDS011;36212;48.838;9.142;2023-10-31T03:01:52;4.82;;;4.63;;
2544;SDS011;36212;48.838;9.142;2023-10-31T03:04:26;4.05;;;3.88;;
2544;SDS011;36212;48.838;9.142;2023-10-31T03:06:58;5.30;;;5.20;;
2544;SDS011;36212;48.838;9.142;2023-10-31T03:09:31;4.45;;;4.35;;
2544;SDS011;36212;48.838;9.142;2023-10-31T03:12:03;5.40;;;5.20;;
2544;SDS011;36212;48.838;9.142;2023-10-31T03:14:36;5.63;;;5.43;;
2544;SDS011;36212;48.838;9.142;2023-10-31T03:17:09;5.25;;;4.82;;
2544;SDS011;36212;48.838;9.142;2023-10-31T03:19:42;4.68;;;4.57;;
2544;SDS011;36212;48.838;9.142;2023-10-31T03:22:15;5.72;;;5.53;;
2544;SDS011;36212;48.838;9.142;2023-10-31T03:24:48;5.30;;;5.10;;
2544;SDS011;36212;48.838;9.142;2023-10-31T03:27:20;5.60;;;5.40;;
2544;SDS011;36212;48.838;9.142;2023-10-31T03:29:53;5.93;;;5.72;;
2544;SDS011;36212;48.838;9.142;2023-10-31T03:32:25;5.20;;;5.10;;
2544;SDS011;36212;48.838;9.142;2023-10-31T03:34:58;5.55;;;5.35;;
2544;SDS011;36212;48.838;9.142;2023-10-31T03:37:30;6.47;;;6.07;;
2544;SDS011;36212;48.838;9.142;2023-10-31T03:40:03;6.07;;;5.88;;
2544;SDS011;36212;48.838;9.142;2023-10-31T03:42:36;5.50;;;5.30;;
2544;SDS011;36212;48.838;9.142;2023-10-31T03:45:09;5.50;;;5.28;;
2544;SDS011;36212;48.838;9.142;2023-10-31T03:47:41;5.80;;;5.57;;
2544;SDS011;36212;48.838;9.142;2023-10-31T03:50:14;4.88;;;4.68;;
2544;SDS011;36212;48.838;9.142;2023-10-31T03:52:46;5.20;;;5.00;;
2544;SDS011;36212;48.838;9.142;2023-10-31T03:55:19;5.40;;;5.20;;
2544;SDS011;36212;48.838;9.142;2023-10-31T03:57:51;5.15;;;5.05;;
2544;SDS011;36212;48.838;9.142;2023-10-31T04:00:23;6.05;;;5.85;;
2544;SDS011;36212;48.838;9.142;2023-10-31T04:02:56;5.68;;;5.47;;
2544;SDS011;36212;48.838;9.142;2023-10-31T04:05:28;6.15;;;5.95;;
2544;SDS011;36212;48.838;9.142;2023-10-31T04:08:01;5.50;;;5.20;;
2544;SDS011;36212;48.838;9.142;2023-10-31T04:10:33;4.78;;;4.57;;
2544;SDS011;36212;48.838;9.142;2023-10-31T04:13:06;5.25;;;5.15;;
2544;SDS011;36212;48.838;9.142;2023-10-31T04:15:38;5.18;;;5.07;;
2544;SDS011;36212;48.838;9.142;2023-10-31T04:18:10;9.55;;;5.53;;
2544;SDS011;36212;48.838;9.142;2023-10-31T04:20:43;5.90;;;5.68;;
2544;SDS011;36212;48.838;9.142;2023-10-31T04:23:15;5.80;;;5.60;;
2544;SDS011;36212;48.838;9.142;2023-10-31T04:25:47;6.45;;;6.15;;
2544;SDS011;36212;48.838;9.142;2023-10-31T04:28:20;6.03;;;5.93;;
2544;SDS011;36212;48.838;9.142;2023-10-31T04:30:53;6.10;;;5.90;;
2544;SDS011;36212;48.838;9.142;2023-10-31T04:33:25;6.30;;;6.00;;
2544;SDS011;36212;48.838;9.142;2023-10-31T04:35:57;6.07;;;5.90;;
2544;SDS011;36212;48.838;9.142;2023-10-31T04:38:31;5.90;;;5.70;;
2544;SDS011;36212;48.838;9.142;2023-10-31T04:41:07;5.78;;;5.57;;
2544;SDS011;36212;48.838;9.142;2023-10-31T04:43:41;5.35;;;5.15;;
2544;SDS011;36212;48.838;9.142;2023-10-31T04:46:13;5.38;;;5.05;;
2544;SDS011;36212;48.838;9.142;2023-10-31T04:48:46;4.50;;;4.40;;
2544;SDS011;36212;48.838;9.142;2023-10-31T04:51:18;6.03;;;5.03;;
2544;SDS011;36212;48.838;9.142;2023-10-31T04:53:51;4.35;;;4.25;;
2544;SDS011;36212;48.838;9.142;2023-10-31T04:56:23;4.38;;;4.28;;
2544;SDS011;36212;48.838;9.142;2023-10-31T04:58:55;4.60;;;4.35;;
2544;SDS011;36212;48.838;9.142;2023-10-31T05:01:28;3.80;;;3.65;;
2544;SDS011;36212;48.838;9.142;2023-10-31T05:04:00;3.90;;;3.78;;
2544;SDS011;36212;48.838;9.142;2023-10-31T05:06:43;4.60;;;4.43;;
2544;SDS011;36212;48.838;9.142;2023-10-31T05:09:16;4.20;;;4.00;;
2544;SDS011;36212;48.838;9.142;2023-10-31T05:11:50;4.38;;;4.18;;
2544;SDS011;36212;48.838;9.142;2023-10-31T05:14:22;4.20;;;4.10;;
2544;SDS011;36212;48.838;9.142;2023-10-31T05:16:54;4.50;;;4.07;;
2544;SDS011;36212;48.838;9.142;2023-10-31T05:19:27;3.85;;;3.75;;
2544;SDS011;36212;48.838;9.142;2023-10-31T05:21:59;3.75;;;3.65;;
2544;SDS011;36212;48.838;9.142;2023-10-31T05:24:32;3.67;;;3.58;;
2544;SDS011;36212;48.838;9.142;2023-10-31T05:27:04;3.40;;;3.30;;
2544;SDS011;36212;48.838;9.142;2023-10-31T05:29:39;3.38;;;3.28;;
2544;SDS011;36212;48.838;9.142;2023-10-31T05:32:11;4.00;;;3.90;;
2544;SDS011;36212;48.838;9.142;2023-10-31T05:34:43;6.15;;;4.10;;
2544;SDS011;36212;48.838;9.142;2023-10-31T05:37:16;4.13;;;4.03;;
2544;SDS011;36212;48.838;9.142;2023-10-31T05:39:48;3.85;;;3.75;;
2544;SDS011;36212;48.838;9.142;2023-10-31T05:42:20;4.47;;;4.28;;
2544;SDS011;36212;48.838;9.142;2023-10-31T05:44:54;3.95;;;3.85;;
2544;SDS011;36212;48.838;9.142;2023-10-31T05:47:27;4.10;;;4.00;;
2544;SDS011;36212;48.838;9.142;2023-10-31T05:49:59;4.40;;;4.10;;
2544;SDS011;36212;48.838;9.142;2023-10-31T05:52:31;4.50;;;4.30;;
2544;SDS011;36212;48.838;9.142;2023-10-31T05:55:04;4.35;;;4.00;;
2544;SDS011;36212;48.838;9.142;2023-10-31T05:57:37;4.10;;;3.80;;
2544;SDS011;36212;48.838;9.142;2023-10-31T06:00:10;3.97;;;3.65;;
2544;SDS011;36212;48.838;9.142;2023-10-31T06:02:43;4.05;;;3.92;;
2544;SDS011;36212;48.838;9.142;2023-10-31T06:05:16;4.20;;;4.00;;
2544;SDS011;36212;48.838;9.142;2023-10-31T06:07:48;4.85;;;4.45;;
2544;SDS011;36212;48.838;9.142;2023-10-31T06:10:21;4.15;;;3.95;;
2544;SDS011;36212;48.838;9.142;2023-10-31T06:12:54;4.75;;;4.55;;
2544;SDS011;36212;48.838;9.142;2023-10-31T06:15:26;4.45;;;4.35;;
2544;SDS011;36212;48.838;9.142;2023-10-31T06:17:58;5.47;;;5.25;;
2544;SDS011;36212;48.838;9.142;2023-10-31T06:20:31;4.60;;;4.50;;
2544;SDS011;36212;48.838;9.142;2023-10-31T06:23:07;4.93;;;4.80;;
2544;SDS011;36212;48.838;9.142;2023-10-31T06:25:41;4.55;;;4.25;;
2544;SDS011;36212;48.838;9.142;2023-10-31T06:28:14;4.20;;;4.10;;
2544;SDS011;36212;48.838;9.142;2023-10-31T06:30:46;4.45;;;4.05;;
2544;SDS011;36212;48.838;9.142;2023-10-31T06:33:18;4.13;;;3.92;;
2544;SDS011;36212;48.838;9.142;2023-10-31T06:35:51;4.18;;;4.07;;
2544;SDS011;36212;48.838;9.142;2023-10-31T06:38:25;3.60;;;3.50;;
2544;SDS011;36212;48.838;9.142;2023-10-31T06:40:59;4.32;;;4.22;;
2544;SDS011;36212;48.838;9.142;2023-10-31T06:44:20;3.30;;;3.10;;
2544;SDS011;36212;48.838;9.142;2023-10-31T06:46:52;2.88;;;2.78;;
2544;SDS011;36212;48.838;9.142;2023-10-31T06:49:25;2.97;;;2.88;;
2544;SDS011;36212;48.838;9.142;2023-10-31T06:51:57;2.85;;;2.75;;
2544;SDS011;36212;48.838;9.142;2023-10-31T06:54:32;3.10;;;2.90;;
2544;SDS011;36212;48.838;9.142;2023-10-31T06:57:06;3.05;;;2.85;;
2544;SDS011;36212;48.838;9.142;2023-10-31T06:59:38;3.30;;;3.20;;
2544;SDS011;36212;48.838;9.142;2023-10-31T07:02:10;2.90;;;2.80;;
2544;SDS011;36212;48.838;9.142;2023-10-31T07:04:44;3.72;;;2.75;;
2544;SDS011;36212;48.838;9.142;2023-10-31T07:07:16;3.13;;;3.03;;
2544;SDS011;36212;48.838;9.142;2023-10-31T07:09:49;3.15;;;3.00;;
2544;SDS011;36212;48.838;9.142;2023-10-31T07:12:21;2.83;;;2.72;;
2544;SDS011;36212;48.838;9.142;2023-10-31T07:15:00;3.00;;;2.80;;
2544;SDS011;36212;48.838;9.142;2023-10-31T07:17:39;3.50;;;3.30;;
2544;SDS011;36212;48.838;9.142;2023-10-31T07:20:11;3.20;;;3.10;;
2544;SDS011;36212;48.838;9.142;2023-10-31T07:22:44;3.30;;;3.10;;
2544;SDS011;36212;48.838;9.142;2023-10-31T07:25:17;3.10;;;2.90;;
2544;SDS011;36212;48.838;9.142;2023-10-31T07:27:49;3.72;;;3.53;;
2544;SDS011;36212;48.838;9.142;2023-10-31T07:30:21;3.30;;;3.20;;
2544;SDS011;36212;48.838;9.142;2023-10-31T07:32:54;3.85;;;3.75;;
2544;SDS011;36212;48.838;9.142;2023-10-31T07:35:26;3.67;;;3.30;;
2544;SDS011;36212;48.838;9.142;2023-10-31T07:38:01;3.20;;;3.00;;
2544;SDS011;36212;48.838;9.142;2023-10-31T07:40:37;3.00;;;2.90;;
2544;SDS011;36212;48.838;9.142;2023-10-31T07:43:09;3.20;;;2.88;;
2544;SDS011;36212;48.838;9.142;2023-10-31T07:45:43;3.25;;;3.05;;
2544;SDS011;36212;48.838;9.142;2023-10-31T07:48:16;2.90;;;2.80;;
2544;SDS011;36212;48.838;9.142;2023-10-31T07:51:27;2.75;;;2.65;;
2544;SDS011;36212;48.838;9.142;2023-10-31T07:53:59;2.85;;;2.72;;
2544;SDS011;36212;48.838;9.142;2023-10-31T07:56:32;2.90;;;2.80;;
2544;SDS011;36212;48.838;9.142;2023-10-31T08:01:58;2.95;;;2.75;;
2544;SDS011;36212;48.838;9.142;2023-10-31T08:04:48;2.90;;;2.70;;
2544;SDS011;36212;48.838;9.142;2023-10-31T08:07:25;2.70;;;2.50;;
2544;SDS011;36212;48.838;9.142;2023-10-31T08:10:05;2.92;;;2.83;;
2544;SDS011;36212;48.838;9.142;2023-10-31T08:12:39;2.58;;;2.45;;
2544;SDS011;36212;48.838;9.142;2023-10-31T08:15:12;2.53;;;2.42;;
2544;SDS011;36212;48.838;9.142;2023-10-31T08:17:46;2.67;;;2.58;;
2544;SDS011;36212;48.838;9.142;2023-10-31T08:20:19;2.92;;;2.60;;
2544;SDS011;36212;48.838;9.142;2023-10-31T08:23:05;2.80;;;2.70;;
2544;SDS011;36212;48.838;9.142;2023-10-31T08:25:37;5.30;;;2.95;;
2544;SDS011;36212;48.838;9.142;2023-10-31T08:28:10;2.97;;;2.78;;
2544;SDS011;36212;48.838;9.142;2023-10-31T08:30:43;2.85;;;2.75;;
2544;SDS011;36212;48.838;9.142;2023-10-31T08:33:17;2.60;;;2.50;;
2544;SDS011;36212;48.838;9.142;2023-10-31T08:35:49;2.95;;;2.75;;
2544;SDS011;36212;48.838;9.142;2023-10-31T08:38:22;2.70;;;2.60;;
2544;SDS011;36212;48.838;9.142;2023-10-31T08:41:02;2.90;;;2.70;;
2544;SDS011;36212;48.838;9.142;2023-10-31T08:43:35;3.00;;;2.90;;
2544;SDS011;36212;48.838;9.142;2023-10-31T08:46:08;2.97;;;2.88;;
2544;SDS011;36212;48.838;9.142;2023-10-31T08:48:41;3.03;;;2.83;;
2544;SDS011;36212;48.838;9.142;2023-10-31T08:51:13;2.70;;;2.60;;
2544;SDS011;36212;48.838;9.142;2023-10-31T08:53:46;2.85;;;2.75;;
2544;SDS011;36212;48.838;9.142;2023-10-31T08:56:26;3.88;;;3.50;;
2544;SDS011;36212;48.838;9.142;2023-10-31T08:58:59;3.22;;;2.92;;
2544;SDS011;36212;48.838;9.142;2023-10-31T09:01:32;3.72;;;2.70;;
2544;SDS011;36212;48.838;9.142;2023-10-31T09:04:08;2.90;;;2.70;;
2544;SDS011;36212;48.838;9.142;2023-10-31T09:06:41;2.75;;;2.65;;
2544;SDS011;36212;48.838;9.142;2023-10-31T09:09:14;3.28;;;3.08;;
2544;SDS011;36212;48.838;9.142;2023-10-31T09:11:47;3.17;;;2.97;;
2544;SDS011;36212;48.838;9.142;2023-10-31T09:14:20;3.42;;;3.22;;
2544;SDS011;36212;48.838;9.142;2023-10-31T09:16:53;3.42;;;3.30;;
2544;SDS011;36212;48.838;9.142;2023-10-31T09:19:26;3.30;;;3.00;;
2544;SDS011;36212;48.838;9.142;2023-10-31T09:21:58;3.30;;;3.10;;
2544;SDS011;36212;48.838;9.142;2023-10-31T09:24:32;3.28;;;3.05;;
2544;SDS011;36212;48.838;9.142;2023-10-31T09:27:05;3.50;;;3.20;;
2544;SDS011;36212;48.838;9.142;2023-10-31T09:29:37;3.83;;;3.63;;
2544;SDS011;36212;48.838;9.142;2023-10-31T09:32:10;3.58;;;3.38;;
2544;SDS011;36212;48.838;9.142;2023-10-31T09:34:44;3.47;;;3.28;;
2544;SDS011;36212;48.838;9.142;2023-10-31T09:37:17;3.58;;;3.47;;
2544;SDS011;36212;48.838;9.142;2023-10-31T09:40:01;3.65;;;3.42;;
2544;SDS011;36212;48.838;9.142;2023-10-31T09:42:46;3.80;;;3.50;;
2544;SDS011;36212;48.838;9.142;2023-10-31T09:45:22;3.60;;;3.40;;
2544;SDS011;36212;48.838;9.142;2023-10-31T09:47:57;3.78;;;3.58;;
2544;SDS011;36212;48.838;9.142;2023-10-31T09:50:34;4.07;;;3.78;;
2544;SDS011;36212;48.838;9.142;2023-10-31T09:53:11;3.80;;;3.50;;
2544;SDS011;36212;48.838;9.142;2023-10-31T09:55:48;3.20;;;3.10;;
2544;SDS011;36212;48.838;9.142;2023-10-31T09:58:25;3.78;;;3.47;;
2544;SDS011;36212;48.838;9.142;2023-10-31T10:00:58;3.50;;;3.17;;
2544;SDS011;36212;48.838;9.142;2023-10-31T10:03:31;3.55;;;3.30;;
2544;SDS011;36212;48.838;9.142;2023-10-31T10:06:03;3.67;;;3.42;;
2544;SDS011;36212;48.838;9.142;2023-10-31T10:08:46;3.00;;;2.80;;
2544;SDS011;36212;48.838;9.142;2023-10-31T10:11:38;3.42;;;3.15;;
2544;SDS011;36212;48.838;9.142;2023-10-31T10:14:11;3.38;;;3.17;;
2544;SDS011;36212;48.838;9.142;2023-10-31T10:16:46;3.92;;;3.70;;
2544;SDS011;36212;48.838;9.142;2023-10-31T10:19:19;3.38;;;3.28;;
2544;SDS011;36212;48.838;9.142;2023-10-31T10:21:56;5.35;;;3.25;;
2544;SDS011;36212;48.838;9.142;2023-10-31T10:24:30;4.22;;;3.30;;
2544;SDS011;36212;48.838;9.142;2023-10-31T10:27:03;3.20;;;3.00;;
2544;SDS011;36212;48.838;9.142;2023-10-31T10:29:43;3.55;;;3.25;;
2544;SDS011;36212;48.838;9.142;2023-10-31T10:32:44;3.00;;;2.80;;
2544;SDS011;36212;48.838;9.142;2023-10-31T10:35:30;3.70;;;3.40;;
2544;SDS011;36212;48.838;9.142;2023-10-31T10:38:11;3.67;;;3.38;;
2544;SDS011;36212;48.838;9.142;2023-10-31T10:41:17;3.47;;;3.22;;
2544;SDS011;36212;48.838;9.142;2023-10-31T10:43:56;3.70;;;3.50;;
2544;SDS011;36212;48.838;9.142;2023-10-31T10:46:37;3.60;;;3.40;;
2544;SDS011;36212;48.838;9.142;2023-10-31T10:49:15;3.75;;;3.55;;
2544;SDS011;36212;48.838;9.142;2023-10-31T10:55:12;3.60;;;3.40;;
2544;SDS011;36212;48.838;9.142;2023-10-31T11:00:52;3.63;;;3.33;;
2544;SDS011;36212;48.838;9.142;2023-10-31T11:03:27;3.97;;;3.10;;
2544;SDS011;36212;48.838;9.142;2023-10-31T11:06:02;3.58;;;3.38;;
2544;SDS011;36212;48.838;9.142;2023-10-31T11:08:36;5.85;;;4.10;;
2544;SDS011;36212;48.838;9.142;2023-10-31T11:11:10;3.70;;;3.50;;
2544;SDS011;36212;48.838;9.142;2023-10-31T11:13:43;3.65;;;3.45;;
2544;SDS011;36212;48.838;9.142;2023-10-31T11:17:05;4.05;;;3.75;;
2544;SDS011;36212;48.838;9.142;2023-10-31T11:19:19;3.83;;;3.60;;
2544;SDS011;36212;48.838;9.142;2023-10-31T11:21:59;4.00;;;3.80;;
2544;SDS011;36212;48.838;9.142;2023-10-31T11:24:38;3.17;;;3.03;;
2544;SDS011;36212;48.838;9.142;2023-10-31T11:27:11;3.55;;;3.35;;
2544;SDS011;36212;48.838;9.142;2023-10-31T11:29:44;4.57;;;4.22;;
2544;SDS011;36212;48.838;9.142;2023-10-31T11:32:17;3.92;;;3.80;;
2544;SDS011;36212;48.838;9.142;2023-10-31T11:34:52;4.97;;;4.78;;
2544;SDS011;36212;48.838;9.142;2023-10-31T11:43:35;4.10;;;3.90;;
2544;SDS011;36212;48.838;9.142;2023-10-31T11:46:22;3.95;;;3.70;;
2544;SDS011;36212;48.838;9.142;2023-10-31T11:52:24;4.68;;;4.07;;
2544;SDS011;36212;48.838;9.142;2023-10-31T11:54:58;4.30;;;4.00;;
2544;SDS011;36212;48.838;9.142;2023-10-31T11:57:34;3.80;;;3.60;;
2544;SDS011;36212;48.838;9.142;2023-10-31T12:00:21;3.90;;;3.80;;
2544;SDS011;36212;48.838;9.142;2023-10-31T12:03:02;3.55;;;3.33;;
2544;SDS011;36212;48.838;9.142;2023-10-31T12:05:41;5.03;;;3.88;;
2544;SDS011;36212;48.838;9.142;2023-10-31T12:09:46;4.25;;;3.95;;
2544;SDS011;36212;48.838;9.142;2023-10-31T12:12:30;3.97;;;3.80;;
2544;SDS011;36212;48.838;9.142;2023-10-31T12:15:10;3.47;;;3.28;;
2544;SDS011;36212;48.838;9.142;2023-10-31T12:17:58;3.10;;;2.90;;
2544;SDS011;36212;48.838;9.142;2023-10-31T12:20:33;3.50;;;3.30;;
2544;SDS011;36212;48.838;9.142;2023-10-31T12:23:17;3.85;;;3.55;;
2544;SDS011;36212;48.838;9.142;2023-10-31T12:25:51;3.67;;;3.47;;
2544;SDS011;36212;48.838;9.142;2023-10-31T12:28:33;4.13;;;3.95;;
2544;SDS011;36212;48.838;9.142;2023-10-31T12:31:09;3.85;;;3.70;;
2544;SDS011;36212;48.838;9.142;2023-10-31T12:33:44;4.90;;;4.70;;
2544;SDS011;36212;48.838;9.142;2023-10-31T12:36:17;4.80;;;4.60;;
2544;SDS011;36212;48.838;9.142;2023-10-31T12:38:52;5.57;;;5.38;;
2544;SDS011;36212;48.838;9.142;2023-10-31T12:41:25;5.50;;;5.25;;
2544;SDS011;36212;48.838;9.142;2023-10-31T12:44:00;4.43;;;4.22;;
2544;SDS011;36212;48.838;9.142;2023-10-31T12:46:38;5.03;;;4.82;;
2544;SDS011;36212;48.838;9.142;2023-10-31T12:49:12;4.90;;;4.70;;
2544;SDS011;36212;48.838;9.142;2023-10-31T12:52:04;4.60;;;4.35;;
2544;SDS011;36212;48.838;9.142;2023-10-31T12:54:37;3.78;;;3.58;;
2544;SDS011;36212;48.838;9.142;2023-10-31T12:57:10;3.90;;;3.80;;
2544;SDS011;36212;48.838;9.142;2023-10-31T12:59:43;4.50;;;4.30;;
2544;SDS011;36212;48.838;9.142;2023-10-31T13:02:16;4.43;;;4.22;;
2544;SDS011;36212;48.838;9.142;2023-10-31T13:04:50;4.30;;;4.20;;
2544;SDS011;36212;48.838;9.142;2023-10-31T13:07:26;3.97;;;3.88;;
2544;SDS011;36212;48.838;9.142;2023-10-31T13:10:13;4.20;;;4.00;;
2544;SDS011;36212;48.838;9.142;2023-10-31T13:12:59;3.45;;;3.35;;
2544;SDS011;36212;48.838;9.142;2023-10-31T13:15:32;4.15;;;3.85;;
2544;SDS011;36212;48.838;9.142;2023-10-31T13:18:06;3.63;;;3.20;;
2544;SDS011;36212;48.838;9.142;2023-10-31T13:20:45;4.75;;;3.95;;
2544;SDS011;36212;48.838;9.142;2023-10-31T13:23:21;4.82;;;4.53;;
2544;SDS011;36212;48.838;9.142;2023-10-31T13:25:53;4.50;;;4.32;;
2544;SDS011;36212;48.838;9.142;2023-10-31T13:28:27;5.00;;;4.70;;
2544;SDS011;36212;48.838;9.142;2023-10-31T13:31:02;4.60;;;4.40;;
2544;SDS011;36212;48.838;9.142;2023-10-31T13:33:37;4.60;;;4.43;;
2544;SDS011;36212;48.838;9.142;2023-10-31T13:36:12;6.20;;;5.80;;
2544;SDS011;36212;48.838;9.142;2023-10-31T13:38:51;4.80;;;4.40;;
2544;SDS011;36212;48.838;9.142;2023-10-31T13:41:24;5.05;;;4.63;;
2544;SDS011;36212;48.838;9.142;2023-10-31T13:43:58;5.10;;;4.80;;
2544;SDS011;36212;48.838;9.142;2023-10-31T13:46:33;5.00;;;4.80;;
2544;SDS011;36212;48.838;9.142;2023-10-31T13:49:06;4.82;;;4.63;;
2544;SDS011;36212;48.838;9.142;2023-10-31T13:51:39;4.68;;;4.30;;
2544;SDS011;36212;48.838;9.142;2023-10-31T13:54:12;5.57;;;5.30;;
2544;SDS011;36212;48.838;9.142;2023-10-31T13:56:45;4.90;;;4.70;;
2544;SDS011;36212;48.838;9.142;2023-10-31T13:59:18;5.50;;;5.30;;
2544;SDS011;36212;48.838;9.142;2023-10-31T14:01:51;6.47;;;6.18;;
2544;SDS011;36212;48.838;9.142;2023-10-31T14:04:23;4.18;;;3.88;;
2544;SDS011;36212;48.838;9.142;2023-10-31T14:06:56;4.22;;;3.90;;
2544;SDS011;36212;48.838;9.142;2023-10-31T14:09:29;3.58;;;3.47;;
2544;SDS011;36212;48.838;9.142;2023-10-31T14:12:03;4.18;;;4.07;;
2544;SDS011;36212;48.838;9.142;2023-10-31T14:14:36;3.38;;;3.28;;
2544;SDS011;36212;48.838;9.142;2023-10-31T14:17:09;3.70;;;3.60;;
2544;SDS011;36212;48.838;9.142;2023-10-31T14:19:42;3.33;;;3.22;;
2544;SDS011;36212;48.838;9.142;2023-10-31T14:22:15;4.40;;;4.20;;
2544;SDS011;36212;48.838;9.142;2023-10-31T14:24:48;4.10;;;3.90;;
2544;SDS011;36212;48.838;9.142;2023-10-31T14:27:21;4.20;;;4.10;;
2544;SDS011;36212;48.838;9.142;2023-10-31T14:29:54;3.90;;;3.70;;
2544;SDS011;36212;48.838;9.142;2023-10-31T14:32:27;4.90;;;4.70;;
2544;SDS011;36212;48.838;9.142;2023-10-31T14:34:59;4.10;;;3.90;;
2544;SDS011;36212;48.838;9.142;2023-10-31T14:37:34;3.78;;;3.53;;
2544;SDS011;36212;48.838;9.142;2023-10-31T14:40:09;3.85;;;3.65;;
2544;SDS011;36212;48.838;9.142;2023-10-31T14:42:44;3.95;;;3.75;;
2544;SDS011;36212;48.838;9.142;2023-10-31T14:45:17;3.90;;;3.70;;
2544;SDS011;36212;48.838;9.142;2023-10-31T14:47:50;3.63;;;3.53;;
2544;SDS011;36212;48.838;9.142;2023-10-31T14:50:25;6.60;;;4.60;;
2544;SDS011;36212;48.838;9.142;2023-10-31T14:52:59;4.40;;;4.00;;
2544;SDS011;36212;48.838;9.142;2023-10-31T14:55:32;4.22;;;4.03;;
2544;SDS011;36212;48.838;9.142;2023-10-31T14:58:04;3.95;;;3.55;;
2544;SDS011;36212;48.838;9.142;2023-10-31T15:00:40;3.83;;;3.55;;
2544;SDS011;36212;48.838;9.142;2023-10-31T15:03:12;3.50;;;3.40;;
2544;SDS011;36212;48.838;9.142;2023-10-31T15:05:45;3.47;;;3.30;;
2544;SDS011;36212;48.838;9.142;2023-10-31T15:08:17;4.05;;;3.75;;
2544;SDS011;36212;48.838;9.142;2023-10-31T15:10:53;3.30;;;3.20;;
2544;SDS011;36212;48.838;9.142;2023-10-31T15:13:27;3.70;;;3.40;;
2544;SDS011;36212;48.838;9.142;2023-10-31T15:15:59;3.25;;;3.05;;
2544;SDS011;36212;48.838;9.142;2023-10-31T15:18:32;5.60;;;4.75;;
2544;SDS011;36212;48.838;9.142;2023-10-31T15:21:05;3.45;;;3.35;;
2544;SDS011;36212;48.838;9.142;2023-10-31T15:23:38;3.72;;;3.47;;
2544;SDS011;36212;48.838;9.142;2023-10-31T15:26:11;3.55;;;3.45;;
2544;SDS011;36212;48.838;9.142;2023-10-31T15:28:45;3.20;;;3.00;;
2544;SDS011;36212;48.838;9.142;2023-10-31T15:31:18;3.45;;;3.25;;
2544;SDS011;36212;48.838;9.142;2023-10-31T15:33:51;3.10;;;2.90;;
2544;SDS011;36212;48.838;9.142;2023-10-31T15:36:23;3.78;;;3.47;;
2544;SDS011;36212;48.838;9.142;2023-10-31T15:38:57;2.97;;;2.80;;
2544;SDS011;36212;48.838;9.142;2023-10-31T15:41:30;3.15;;;3.05;;
2544;SDS011;36212;48.838;9.142;2023-10-31T15:44:03;4.20;;;3.90;;
2544;SDS011;36212;48.838;9.142;2023-10-31T15:46:38;3.30;;;3.20;;
2544;SDS011;36212;48.838;9.142;2023-10-31T15:49:15;3.25;;;3.05;;
2544;SDS011;36212;48.838;9.142;2023-10-31T16:00:19;3.75;;;3.55;;
2544;SDS011;36212;48.838;9.142;2023-10-31T16:05:19;5.30;;;5.00;;
2544;SDS011;36212;48.838;9.142;2023-10-31T16:09:18;3.67;;;3.50;;
2544;SDS011;36212;48.838;9.142;2023-10-31T16:12:24;4.10;;;3.90;;
2544;SDS011;36212;48.838;9.142;2023-10-31T16:14:57;3.95;;;3.75;;
2544;SDS011;36212;48.838;9.142;2023-10-31T16:17:36;6.15;;;3.80;;